Time;durP1;ratioP1;P1;durP2;ratioP2;P2;SDS_P1;SDS_P2;PMS_P1;PMS_P2;Temp;Humidity;BMP_temperature;BMP_pressure;BME280_temperature;BME280_humidity;BME280_pressure;Samples;Min_cycle;Max_cycle;Signal;HPM_P1;HPM_P2
2021/08/11 00:01:43;;;;;;;0.40;0.20;;;;;;;16.76;100.00;100464.28;5010000;28;20524;-54
2021/08/11 00:04:10;;;;;;;0.50;0.50;;;;;;;16.58;100.00;100454.44;5005351;28;20965;-54
2021/08/11 00:06:36;;;;;;;0.40;0.20;;;;;;;16.39;100.00;100459.88;5002756;28;20469;-53
2021/08/11 00:09:03;;;;;;;0.40;0.20;;;;;;;16.38;100.00;100457.25;5006807;28;20460;-53
2021/08/11 00:11:30;;;;;;;1.23;1.13;;;;;;;16.56;100.00;100448.28;5009385;28;20444;-53
2021/08/11 00:13:58;;;;;;;0.40;0.20;;;;;;;16.58;100.00;100452.66;5005591;28;20499;-54
2021/08/11 00:16:24;;;;;;;0.50;0.33;;;;;;;16.58;100.00;100452.66;5011637;28;20539;-54
2021/08/11 00:18:51;;;;;;;0.40;0.20;;;;;;;16.65;100.00;100461.25;5005931;28;20456;-53
2021/08/11 00:21:18;;;;;;;0.40;0.20;;;;;;;16.79;100.00;100472.19;5002207;28;20546;-54
2021/08/11 00:23:44;;;;;;;1.13;1.13;;;;;;;16.81;100.00;100470.28;5006060;28;20961;-54
2021/08/11 00:26:11;;;;;;;0.40;0.20;;;;;;;16.75;100.00;100480.47;5008813;28;20449;-53
2021/08/11 00:28:37;;;;;;;0.50;0.40;;;;;;;16.63;100.00;100481.94;5005457;28;20460;-53
2021/08/11 00:31:04;;;;;;;0.40;0.20;;;;;;;16.36;100.00;100483.31;5002099;28;20444;-53
2021/08/11 00:33:31;;;;;;;0.40;0.20;;;;;;;16.43;100.00;100485.59;5005319;28;20452;-53
2021/08/11 00:35:58;;;;;;;0.77;0.77;;;;;;;16.51;100.00;100486.09;5008938;28;20445;-53
2021/08/11 00:38:25;;;;;;;0.40;0.20;;;;;;;16.34;100.00;100486.06;5004850;28;20531;-54
2021/08/11 00:40:52;;;;;;;0.40;0.20;;;;;;;16.34;100.00;100487.88;5008243;28;20566;-54
2021/08/11 00:43:19;;;;;;;0.70;0.67;;;;;;;16.28;100.00;100495.25;5005779;28;20796;-54
2021/08/11 00:45:45;;;;;;;0.40;0.30;;;;;;;16.32;100.00;100492.47;5001933;28;20453;-54
2021/08/11 00:48:12;;;;;;;0.40;0.20;;;;;;;16.31;100.00;100496.97;5003476;28;20590;-54
2021/08/11 00:50:41;;;;;;;0.40;0.20;;;;;;;16.47;100.00;100487.19;5008462;28;20446;-54
2021/08/11 00:53:13;;;;;;;0.40;0.30;;;;;;;16.33;100.00;100487.03;4987759;28;20468;-54
2021/08/11 00:55:40;;;;;;;0.40;0.30;;;;;;;16.45;100.00;100494.47;5008043;28;20481;-53
2021/08/11 00:58:10;;;;;;;0.90;0.90;;;;;;;16.54;100.00;100493.13;5008124;28;20504;-53
2021/08/11 01:00:45;;;;;;;1.20;1.10;;;;;;;16.36;100.00;100496.72;4989547;28;20862;-54
2021/08/11 01:03:16;;;;;;;0.83;0.83;;;;;;;16.22;100.00;100492.91;5001636;28;20512;-54
2021/08/11 01:05:44;;;;;;;0.40;0.30;;;;;;;16.14;100.00;100494.19;5004860;28;20449;-54
2021/08/11 01:08:12;;;;;;;0.40;0.30;;;;;;;16.06;100.00;100488.34;5007752;28;20970;-54
2021/08/11 01:10:41;;;;;;;1.03;1.03;;;;;;;15.98;100.00;100486.03;5004058;28;20499;-53
2021/08/11 01:13:09;;;;;;;0.40;0.20;;;;;;;16.03;100.00;100477.75;5001275;28;20503;-53
2021/08/11 01:15:37;;;;;;;0.40;0.30;;;;;;;16.01;100.00;100477.81;5004755;28;20484;-54
2021/08/11 01:18:03;;;;;;;0.40;0.20;;;;;;;16.23;100.00;100481.22;5007722;28;21009;-54
2021/08/11 01:20:36;;;;;;;0.40;0.20;;;;;;;16.38;100.00;100484.97;5004737;28;20492;-54
2021/08/11 01:23:10;;;;;;;0.40;0.20;;;;;;;16.29;100.00;100480.91;5001714;28;20448;-53
2021/08/11 01:25:43;;;;;;;0.40;0.20;;;;;;;16.09;100.00;100483.72;5013406;28;20502;-54
2021/08/11 01:28:25;;;;;;;0.40;0.30;;;;;;;15.98;100.00;100475.31;4988775;28;20480;-55
2021/08/11 01:31:10;;;;;;;0.40;0.20;;;;;;;15.90;100.00;100477.50;5001172;28;20508;-55
2021/08/11 01:34:08;;;;;;;0.50;0.50;;;;;;;15.88;100.00;100482.91;5002856;28;20536;-56
2021/08/11 01:36:51;;;;;;;0.40;0.20;;;;;;;15.76;100.00;100485.28;4995693;28;20508;-56
2021/08/11 01:39:35;;;;;;;0.40;0.20;;;;;;;15.76;100.00;100479.94;4999414;28;20546;-55
2021/08/11 01:42:09;;;;;;;0.40;0.20;;;;;;;15.63;100.00;100476.97;5000802;28;20543;-56
2021/08/11 01:44:41;;;;;;;0.50;0.40;;;;;;;15.72;100.00;100481.88;5005304;28;20507;-56
2021/08/11 01:47:12;;;;;;;0.40;0.20;;;;;;;15.49;100.00;100482.03;5007351;28;20532;-56
2021/08/11 01:49:41;;;;;;;0.50;0.40;;;;;;;15.82;100.00;100474.28;5004229;28;20444;-56
2021/08/11 01:52:08;;;;;;;0.40;0.20;;;;;;;15.45;100.00;100477.78;4989059;28;20485;-56
2021/08/11 01:54:36;;;;;;;0.40;0.20;;;;;;;15.50;100.00;100475.78;5004416;28;20456;-56
2021/08/11 01:57:07;;;;;;;0.60;0.53;;;;;;;15.76;100.00;100480.81;5000535;28;20468;-56
2021/08/11 01:59:33;;;;;;;0.40;0.20;;;;;;;15.97;100.00;100478.94;5002277;28;20516;-56
2021/08/11 02:02:00;;;;;;;1.17;0.73;;;;;;;16.03;100.00;100477.75;5007077;28;20485;-56
2021/08/11 02:04:28;;;;;;;0.50;0.43;;;;;;;16.14;100.00;100478.97;5005611;28;20969;-56
2021/08/11 02:06:56;;;;;;;0.40;0.30;;;;;;;16.18;100.00;100480.59;5000061;28;20469;-56
2021/08/11 02:09:23;;;;;;;0.40;0.20;;;;;;;16.26;100.00;100485.56;5001486;28;20454;-56
2021/08/11 02:11:50;;;;;;;0.40;0.40;;;;;;;16.28;100.00;100486.34;5006872;28;20458;-56
2021/08/11 02:14:16;;;;;;;0.90;0.50;;;;;;;16.24;100.00;100493.69;5006246;28;20452;-56
2021/08/11 02:16:43;;;;;;;0.40;0.30;;;;;;;16.23;100.00;100480.34;4999679;28;20530;-55
2021/08/11 02:19:11;;;;;;;0.40;0.20;;;;;;;16.06;100.00;100480.31;5000946;28;20596;-56
2021/08/11 02:21:39;;;;;;;0.40;0.20;;;;;;;15.91;100.00;100479.22;5006524;28;20868;-56
2021/08/11 02:24:10;;;;;;;0.40;0.20;;;;;;;16.09;100.00;100485.53;5006582;28;20457;-56
2021/08/11 02:26:48;;;;;;;0.40;0.30;;;;;;;16.19;100.00;100490.38;5000937;28;20566;-56
2021/08/11 02:29:51;;;;;;;0.40;0.20;;;;;;;16.10;100.00;100493.50;4999932;28;20449;-56
2021/08/11 02:32:25;;;;;;;0.40;0.20;;;;;;;16.19;100.00;100479.66;4999987;28;20519;-56
2021/08/11 02:35:06;;;;;;;0.40;0.27;;;;;;;16.36;100.00;100486.00;5004657;28;20485;-56
2021/08/11 02:37:39;;;;;;;4.40;0.77;;;;;;;16.29;100.00;100493.44;5003584;28;20470;-56
2021/08/11 02:40:45;;;;;;;0.40;0.30;;;;;;;16.27;100.00;100496.22;5005255;28;20475;-56
2021/08/11 02:43:17;;;;;;;0.40;0.40;;;;;;;16.21;100.00;100496.53;4992937;28;20499;-56
2021/08/11 02:45:49;;;;;;;0.40;0.20;;;;;;;16.10;100.00;100493.50;5000087;28;20469;-56
2021/08/11 02:48:17;;;;;;;0.40;0.20;;;;;;;15.83;100.00;100490.31;5000606;28;20532;-56
2021/08/11 02:50:44;;;;;;;0.40;0.30;;;;;;;16.06;100.00;100497.28;5006467;28;20453;-56
2021/08/11 02:53:12;;;;;;;0.40;0.30;;;;;;;16.28;100.00;100500.63;4997662;28;20972;-56
2021/08/11 02:55:40;;;;;;;0.70;0.67;;;;;;;16.15;100.00;100506.66;4999736;28;20448;-56
2021/08/11 02:58:07;;;;;;;0.63;0.63;;;;;;;16.06;100.00;100499.94;4999154;28;20498;-55
2021/08/11 03:00:35;;;;;;;1.03;1.03;;;;;;;15.95;100.00;100499.59;5005571;28;20993;-56
2021/08/11 03:03:03;;;;;;;0.40;0.30;;;;;;;15.94;100.00;100501.41;5006190;28;20484;-56
2021/08/11 03:05:32;;;;;;;0.40;0.20;;;;;;;15.98;100.00;100502.13;4997109;28;20458;-56
2021/08/11 03:07:59;;;;;;;0.60;0.60;;;;;;;15.93;100.00;100498.78;5006091;28;20533;-56
2021/08/11 03:10:26;;;;;;;0.40;0.20;;;;;;;16.05;100.00;100494.66;5000589;28;20940;-56
2021/08/11 03:12:53;;;;;;;0.40;0.30;;;;;;;16.05;100.00;100498.22;4999245;28;20508;-56
2021/08/11 03:15:21;;;;;;;0.40;0.20;;;;;;;15.86;100.00;100494.66;5004542;28;20447;-56
2021/08/11 03:17:48;;;;;;;0.70;0.70;;;;;;;15.91;100.00;100492.63;5006185;28;20907;-56
2021/08/11 03:20:14;;;;;;;0.40;0.20;;;;;;;15.95;100.00;100497.78;5001056;28;20483;-56
2021/08/11 03:22:41;;;;;;;0.40;0.20;;;;;;;15.89;100.00;100494.50;4999376;28;20516;-56
2021/08/11 03:25:08;;;;;;;0.40;0.20;;;;;;;15.97;100.00;100503.94;5003738;28;20489;-56
2021/08/11 03:27:35;;;;;;;0.40;0.20;;;;;;;16.03;100.00;100502.75;5006503;28;21046;-55
2021/08/11 03:30:02;;;;;;;0.40;0.30;;;;;;;15.97;100.00;100500.38;5005935;28;20453;-56
2021/08/11 03:32:29;;;;;;;0.40;0.20;;;;;;;15.85;100.00;100507.19;5003326;28;20441;-56
2021/08/11 03:34:56;;;;;;;0.40;0.20;;;;;;;15.96;100.00;100499.50;5007095;28;20494;-56
2021/08/11 03:37:23;;;;;;;0.40;0.20;;;;;;;15.92;100.00;100497.06;5009653;28;20480;-56
2021/08/11 03:39:50;;;;;;;0.40;0.20;;;;;;;15.83;100.00;100501.03;5006460;28;20448;-55
2021/08/11 03:42:16;;;;;;;0.53;0.40;;;;;;;15.93;100.00;100498.78;5003571;28;20492;-56
2021/08/11 03:44:43;;;;;;;0.40;0.30;;;;;;;16.00;100.00;100500.22;5006282;28;20977;-56
2021/08/11 03:47:09;;;;;;;0.40;0.20;;;;;;;15.91;100.00;100498.88;5010101;28;20512;-56
2021/08/11 03:49:36;;;;;;;0.40;0.20;;;;;;;15.94;100.00;100493.34;5007234;28;20456;-56
2021/08/11 03:52:03;;;;;;;0.40;0.20;;;;;;;16.07;100.00;100493.63;4992239;28;20871;-56
2021/08/11 03:54:29;;;;;;;0.40;0.20;;;;;;;16.01;100.00;100496.59;5006483;28;20449;-56
2021/08/11 03:56:56;;;;;;;0.40;0.30;;;;;;;15.95;100.00;100494.22;5002658;28;21047;-56
2021/08/11 03:59:23;;;;;;;0.40;0.20;;;;;;;16.00;100.00;100494.88;5005845;28;20526;-56
2021/08/11 04:01:53;;;;;;;0.40;0.20;;;;;;;16.14;100.00;100494.19;5009615;28;20525;-56
2021/08/11 04:04:21;;;;;;;0.40;0.20;;;;;;;16.12;100.00;100493.41;5007638;28;20499;-56
2021/08/11 04:06:47;;;;;;;0.40;0.20;;;;;;;16.00;100.00;100498.41;5002617;28;20523;-56
2021/08/11 04:09:14;;;;;;;0.40;0.20;;;;;;;15.96;100.00;100493.28;5004342;28;20480;-55
2021/08/11 04:11:40;;;;;;;0.40;0.20;;;;;;;15.98;100.00;100504.78;5009597;28;20450;-56
2021/08/11 04:14:07;;;;;;;0.40;0.30;;;;;;;15.95;100.00;100499.59;5007648;28;20483;-56
2021/08/11 04:16:34;;;;;;;0.40;0.20;;;;;;;15.92;100.00;100499.75;5002243;28;20496;-56
2021/08/11 04:19:00;;;;;;;0.40;0.20;;;;;;;15.98;100.00;100500.31;5004091;28;20499;-56
2021/08/11 04:21:27;;;;;;;0.50;0.20;;;;;;;16.00;100.00;100505.59;5008955;28;21065;-56
2021/08/11 04:23:53;;;;;;;0.40;0.30;;;;;;;16.02;100.00;100501.00;5008379;28;20448;-57
2021/08/11 04:26:20;;;;;;;0.77;0.77;;;;;;;15.98;100.00;100504.78;5002880;28;20444;-56
2021/08/11 04:28:48;;;;;;;0.40;0.20;;;;;;;15.92;100.00;100502.41;5003903;28;20935;-56
2021/08/11 04:31:15;;;;;;;0.50;0.20;;;;;;;15.98;100.00;100504.78;5008801;28;20489;-56
2021/08/11 04:33:41;;;;;;;0.40;0.30;;;;;;;16.04;100.00;100512.56;5008853;28;20787;-56
2021/08/11 04:36:08;;;;;;;1.63;0.80;;;;;;;16.09;100.00;100515.88;5001842;28;20865;-54
2021/08/11 04:38:35;;;;;;;0.40;0.30;;;;;;;15.95;100.00;100519.22;5001776;28;20496;-54
2021/08/11 04:41:01;;;;;;;0.40;0.20;;;;;;;15.92;100.00;100523.88;5007897;28;21017;-54
2021/08/11 04:43:28;;;;;;;0.50;0.40;;;;;;;15.92;100.00;100529.22;5008017;28;20460;-54
2021/08/11 04:45:55;;;;;;;0.40;0.20;;;;;;;15.92;100.00;100523.88;5001782;28;20448;-55
2021/08/11 04:48:21;;;;;;;0.40;0.20;;;;;;;15.88;100.00;100522.25;5002256;28;20480;-55
2021/08/11 04:50:48;;;;;;;0.40;0.20;;;;;;;15.93;100.00;100534.53;5007911;28;20828;-55
2021/08/11 04:53:14;;;;;;;12.60;1.27;;;;;;;16.09;100.00;100539.16;4988643;28;20461;-55
2021/08/11 04:55:41;;;;;;;0.40;0.30;;;;;;;16.18;100.00;100526.19;5008437;28;20449;-54
2021/08/11 04:58:08;;;;;;;0.40;0.30;;;;;;;16.40;100.00;100533.19;5008403;28;20539;-54
2021/08/11 05:00:34;;;;;;;1.20;0.97;;;;;;;16.71;100.00;100532.56;4988946;28;20483;-55
2021/08/11 05:03:01;;;;;;;1.03;0.60;;;;;;;16.74;100.00;100533.31;5001412;28;20497;-54
2021/08/11 05:05:28;;;;;;;0.40;0.20;;;;;;;17.07;100.00;100540.59;4986391;28;20541;-54
2021/08/11 05:07:54;;;;;;;1.33;0.57;;;;;;;17.50;100.00;100541.88;5008168;28;21018;-54
2021/08/11 05:10:25;;;;;;;0.40;0.20;;;;;;;17.70;100.00;100540.88;5002660;28;20885;-55
2021/08/11 05:12:52;;;;;;;0.40;0.20;;;;;;;17.41;100.00;100545.09;5000173;28;20462;-54
2021/08/11 05:15:19;;;;;;;0.40;0.20;;;;;;;17.23;100.00;100541.53;5007402;28;20454;-55
2021/08/11 05:17:46;;;;;;;0.40;0.20;;;;;;;17.33;100.00;100536.56;5007889;28;20560;-54
2021/08/11 05:20:13;;;;;;;0.40;0.20;;;;;;;17.46;100.00;100532.25;5002259;28;20503;-55
2021/08/11 05:22:40;;;;;;;0.50;0.50;;;;;;;17.48;100.00;100541.97;5001245;28;20532;-55
2021/08/11 05:25:07;;;;;;;4.87;0.80;;;;;;;17.75;100.00;100544.16;5006755;28;20453;-55
2021/08/11 05:27:34;;;;;;;0.40;0.30;;;;;;;17.83;100.00;100541.09;5010457;23;20498;-57
2021/08/11 05:30:01;;;;;;;1.33;1.23;;;;;;;17.93;100.00;100544.97;4994731;28;20456;-55
2021/08/11 05:32:28;;;;;;;0.40;0.30;;;;;;;17.81;100.00;100546.50;4994259;28;20460;-55
2021/08/11 05:34:54;;;;;;;0.40;0.30;;;;;;;18.11;100.00;100537.75;4994419;28;20453;-55
2021/08/11 05:37:21;;;;;;;0.40;0.20;;;;;;;18.15;100.00;100544.69;4984470;28;20474;-55
2021/08/11 05:39:47;;;;;;;0.67;0.67;;;;;;;18.01;100.00;100532.00;4975359;28;20458;-55
2021/08/11 05:42:14;;;;;;;0.40;0.20;;;;;;;17.85;100.00;100545.41;4962407;28;20522;-55
2021/08/11 05:44:41;;;;;;;0.40;0.20;;;;;;;17.79;100.00;100540.34;4965876;28;20447;-55
2021/08/11 05:47:10;;;;;;;0.40;0.20;;;;;;;17.82;100.00;100539.31;4971303;28;20877;-55
2021/08/11 05:49:37;;;;;;;1.20;1.20;;;;;;;17.91;100.00;100544.19;4975487;28;20452;-55
2021/08/11 05:52:05;;;;;;;0.40;0.20;;;;;;;17.94;100.00;100544.91;4967483;28;20574;-55
2021/08/11 05:54:34;;;;;;;0.50;0.20;;;;;;;17.93;100.00;100545.84;4975170;28;20458;-55
2021/08/11 05:57:05;;;;;;;0.40;0.20;;;;;;;17.99;100.00;100552.72;4973395;28;20473;-55
2021/08/11 05:59:32;;;;;;;1.27;1.17;;;;;;;18.07;100.00;100545.09;4974675;28;20451;-55
2021/08/11 06:01:59;;;;;;;0.40;0.20;;;;;;;18.33;100.00;100555.25;4974679;28;20537;-55
2021/08/11 06:04:28;;;;;;;0.40;0.20;;;;;;;18.41;100.00;100549.47;4974747;28;20451;-55
2021/08/11 06:06:54;;;;;;;0.40;0.20;;;;;;;18.91;100.00;100564.53;4966061;28;20486;-55
2021/08/11 06:09:21;;;;;;;0.40;0.30;;;;;;;19.33;100.00;100557.59;4974829;28;20542;-56
2021/08/11 06:11:48;;;;;;;0.40;0.20;;;;;;;19.39;100.00;100560.75;4974406;28;21021;-56
2021/08/11 06:14:14;;;;;;;0.40;0.20;;;;;;;19.55;100.00;100557.16;4974394;28;20454;-56
2021/08/11 06:16:41;;;;;;;0.50;0.40;;;;;;;19.70;100.00;100557.06;4948945;28;20501;-56
2021/08/11 06:19:08;;;;;;;0.40;0.20;;;;;;;19.62;100.00;100566.63;4974547;28;20451;-56
2021/08/11 06:21:34;;;;;;;0.40;0.20;;;;;;;19.74;100.00;100568.56;4974380;28;20935;-56
2021/08/11 06:24:01;;;;;;;0.80;0.57;;;;;;;19.92;100.00;100570.09;4974267;28;20481;-57
2021/08/11 06:26:28;;;;;;;0.50;0.40;;;;;;;19.68;100.00;100568.91;4974538;28;21014;-56
2021/08/11 06:28:54;;;;;;;0.40;0.20;;;;;;;19.89;100.00;100566.72;4973926;28;20485;-57
2021/08/11 06:31:24;;;;;;;0.40;0.20;;;;;;;19.91;100.00;100560.28;4974260;28;20930;-56
2021/08/11 06:33:51;;;;;;;0.40;0.20;;;;;;;20.05;100.00;100565.66;4975446;28;20450;-56
2021/08/11 06:36:19;;;;;;;0.50;0.40;;;;;;;20.04;100.00;100563.94;4973324;28;20512;-56
2021/08/11 06:38:45;;;;;;;0.40;0.30;;;;;;;20.24;100.00;100564.47;4974011;28;20508;-56
2021/08/11 06:41:16;;;;;;;1.03;1.03;;;;;;;20.27;100.00;100565.13;4974165;28;20433;-56
2021/08/11 06:43:44;;;;;;;0.47;0.27;;;;;;;20.01;100.00;100563.22;4972447;28;20521;-56
2021/08/11 06:46:12;;;;;;;0.40;0.20;;;;;;;20.50;98.95;100562.81;4963565;28;20482;-56
2021/08/11 06:48:39;;;;;;;310.50;30.87;;;;;;;20.27;98.75;100559.75;4973932;28;20470;-56
2021/08/11 06:51:07;;;;;;;627.23;73.73;;;;;;;20.36;98.97;100556.44;4971165;28;20459;-56
2021/08/11 06:53:34;;;;;;;0.80;0.80;;;;;;;20.37;98.74;100566.28;4970207;28;20961;-56
2021/08/11 06:56:01;;;;;;;1.23;1.13;;;;;;;20.51;98.84;100565.41;4964546;28;20454;-56
2021/08/11 06:58:28;;;;;;;0.40;0.20;;;;;;;20.56;99.30;100571.41;4970976;28;20449;-56
2021/08/11 07:00:59;;;;;;;0.40;0.30;;;;;;;20.61;98.69;100565.69;4974065;28;20513;-56
2021/08/11 07:03:26;;;;;;;0.40;0.20;;;;;;;20.39;99.41;100568.88;4972071;28;20489;-56
2021/08/11 07:05:53;;;;;;;0.67;0.67;;;;;;;20.36;99.23;100579.91;4967706;28;20829;-56
2021/08/11 07:08:20;;;;;;;0.40;0.20;;;;;;;20.86;97.99;100568.50;4970357;28;20474;-56
2021/08/11 07:10:48;;;;;;;0.40;0.20;;;;;;;20.59;98.72;100573.03;4973750;28;20466;-56
2021/08/11 07:13:17;;;;;;;0.40;0.20;;;;;;;20.53;98.90;100571.59;4973649;28;20457;-56
2021/08/11 07:15:44;;;;;;;0.50;0.40;;;;;;;21.11;97.12;100572.28;4973637;28;20493;-56
2021/08/11 07:18:15;;;;;;;0.43;0.30;;;;;;;20.80;97.58;100577.00;4973610;28;20479;-56
2021/08/11 07:20:42;;;;;;;0.40;0.20;;;;;;;20.86;97.44;100584.72;4973928;28;20446;-56
2021/08/11 07:23:09;;;;;;;0.40;0.20;;;;;;;21.32;95.46;100570.81;4973701;28;20508;-56
2021/08/11 07:25:36;;;;;;;0.40;0.30;;;;;;;21.14;96.77;100569.34;4973725;28;20465;-57
2021/08/11 07:28:05;;;;;;;0.50;0.30;;;;;;;21.59;95.56;100568.91;4973574;28;20464;-56
2021/08/11 07:30:32;;;;;;;5.73;1.43;;;;;;;21.19;96.83;100572.59;4973623;28;20511;-56
2021/08/11 07:32:59;;;;;;;0.40;0.20;;;;;;;21.02;97.90;100570.19;4973651;28;20447;-56
2021/08/11 07:35:26;;;;;;;0.40;0.20;;;;;;;21.23;97.24;100572.28;4972364;28;20501;-56
2021/08/11 07:37:54;;;;;;;1.60;1.50;;;;;;;21.86;95.61;100576.94;4972383;28;20501;-56
2021/08/11 07:40:24;;;;;;;0.70;0.70;;;;;;;21.88;94.44;100571.41;4973388;28;20490;-56
2021/08/11 07:42:50;;;;;;;0.53;0.53;;;;;;;21.62;94.72;100566.97;4973479;28;20539;-56
2021/08/11 07:45:19;;;;;;;0.40;0.30;;;;;;;21.63;95.58;100574.97;4960384;28;20500;-57
2021/08/11 07:47:48;;;;;;;2.77;0.50;;;;;;;21.64;95.00;100575.81;4973376;28;20887;-56
2021/08/11 07:50:16;;;;;;;0.40;0.23;;;;;;;21.72;94.13;100576.16;4973120;28;20505;-56
2021/08/11 07:52:44;;;;;;;0.40;0.30;;;;;;;22.26;91.94;100571.41;4965936;28;20548;-56
2021/08/11 07:55:11;;;;;;;0.40;0.20;;;;;;;22.87;90.61;100579.56;4972380;28;20461;-56
2021/08/11 07:57:38;;;;;;;0.50;0.30;;;;;;;22.54;91.64;100582.91;4973492;28;20477;-56
2021/08/11 08:00:07;;;;;;;0.40;0.30;;;;;;;22.47;91.20;100582.47;4973336;28;20553;-56
2021/08/11 08:02:34;;;;;;;0.40;0.23;;;;;;;22.33;89.08;100572.66;4973313;28;20519;-56
2021/08/11 08:05:02;;;;;;;0.40;0.30;;;;;;;22.63;88.81;100574.13;4973322;28;20457;-56
2021/08/11 08:07:29;;;;;;;1.00;0.90;;;;;;;22.85;87.89;100581.53;4965097;28;20486;-56
2021/08/11 08:09:56;;;;;;;0.40;0.30;;;;;;;22.79;88.49;100566.56;4975884;28;20425;-56
2021/08/11 08:12:23;;;;;;;1.07;0.97;;;;;;;22.81;88.94;100577.28;4973703;28;20447;-56
2021/08/11 08:14:50;;;;;;;0.67;0.67;;;;;;;22.88;89.52;100586.72;4976410;28;20493;-57
2021/08/11 08:17:17;;;;;;;0.90;0.90;;;;;;;22.97;88.78;100580.59;4977270;28;20477;-56
2021/08/11 08:19:43;;;;;;;0.60;0.60;;;;;;;23.10;87.84;100584.13;4977356;28;20436;-56
2021/08/11 08:22:10;;;;;;;0.50;0.30;;;;;;;23.17;85.77;100581.81;4977334;28;20470;-57
2021/08/11 08:24:38;;;;;;;0.63;0.50;;;;;;;23.34;86.11;100576.81;4976822;28;20487;-57
2021/08/11 08:27:05;;;;;;;0.43;0.30;;;;;;;23.20;85.77;100573.44;4977500;28;20491;-56
2021/08/11 08:29:31;;;;;;;0.40;0.30;;;;;;;23.35;85.73;100573.13;4976532;28;20501;-57
2021/08/11 08:31:58;;;;;;;0.43;0.27;;;;;;;23.41;84.56;100573.63;4976685;28;20454;-57
2021/08/11 08:34:25;;;;;;;0.40;0.20;;;;;;;23.52;84.76;100574.53;4975098;28;20892;-57
2021/08/11 08:36:51;;;;;;;0.40;0.30;;;;;;;23.49;85.30;100573.91;4973250;28;20481;-57
2021/08/11 08:39:18;;;;;;;0.63;0.63;;;;;;;23.87;84.32;100585.38;4976287;28;20454;-57
2021/08/11 08:41:46;;;;;;;0.40;0.30;;;;;;;23.92;85.06;100585.00;4976257;28;20455;-57
2021/08/11 08:44:13;;;;;;;2.20;0.80;;;;;;;23.92;83.06;100587.72;4970521;28;20461;-57
2021/08/11 08:46:43;;;;;;;0.50;0.33;;;;;;;23.92;81.97;100590.44;4969317;28;20428;-57
2021/08/11 08:49:10;;;;;;;1.70;1.60;;;;;;;23.84;82.02;100588.31;4976189;28;20485;-57
2021/08/11 08:51:49;;;;;;;0.70;0.50;;;;;;;23.99;82.85;100590.81;4969110;28;20498;-57
2021/08/11 08:54:27;;;;;;;0.40;0.20;;;;;;;24.02;81.81;100580.56;4953454;28;20421;-57
2021/08/11 08:56:54;;;;;;;1.60;1.50;;;;;;;24.36;82.36;100589.59;4975802;28;20851;-57
2021/08/11 08:59:21;;;;;;;0.40;0.20;;;;;;;24.41;80.34;100579.22;4975889;28;20923;-57
2021/08/11 09:01:48;;;;;;;0.70;0.70;;;;;;;24.75;79.52;100574.59;4975778;28;20461;-57
2021/08/11 09:04:14;;;;;;;0.40;0.30;;;;;;;24.93;79.10;100574.03;4974658;28;20878;-57
2021/08/11 09:06:41;;;;;;;0.47;0.30;;;;;;;24.98;77.14;100566.38;4966590;28;20477;-57
2021/08/11 09:09:10;;;;;;;3.03;0.77;;;;;;;25.54;74.49;100577.00;4975919;28;20437;-57
2021/08/11 09:11:40;;;;;;;0.50;0.40;;;;;;;25.15;73.92;100574.00;4975833;28;20421;-57
2021/08/11 09:14:22;;;;;;;0.70;0.60;;;;;;;24.72;75.54;100574.84;4975803;28;20952;-57
2021/08/11 09:16:59;;;;;;;0.60;0.43;;;;;;;25.10;74.81;100571.66;4974453;28;20959;-57
2021/08/11 09:19:36;;;;;;;0.50;0.30;;;;;;;24.81;77.03;100575.94;4975595;28;20457;-57
2021/08/11 09:22:06;;;;;;;1.20;0.80;;;;;;;24.40;76.55;100571.22;4975616;28;20421;-57
2021/08/11 09:24:37;;;;;;;3.30;3.20;;;;;;;24.61;77.41;100574.00;4975366;28;20469;-57
2021/08/11 09:27:22;;;;;;;0.43;0.30;;;;;;;24.76;76.72;100581.75;4975089;28;20464;-57
2021/08/11 09:30:07;;;;;;;1.90;0.90;;;;;;;24.79;76.84;100577.91;4949918;28;20509;-57
2021/08/11 09:32:59;;;;;;;0.40;0.20;;;;;;;25.70;75.03;100569.25;4975421;28;20489;-57
2021/08/11 09:35:30;;;;;;;0.50;0.40;;;;;;;25.74;73.17;100564.41;4972883;28;20989;-57
2021/08/11 09:38:00;;;;;;;1.03;1.03;;;;;;;25.63;71.95;100562.56;4949642;28;20449;-57
2021/08/11 09:40:32;;;;;;;0.50;0.40;;;;;;;25.78;72.54;100557.72;4975124;28;20449;-57
2021/08/11 09:43:04;;;;;;;0.60;0.57;;;;;;;25.92;70.59;100554.63;4974318;28;20465;-57
2021/08/11 09:45:44;;;;;;;0.40;0.20;;;;;;;25.50;70.12;100564.66;4962391;28;20499;-57
2021/08/11 09:48:11;;;;;;;3.03;2.73;;;;;;;26.13;69.88;100569.06;4975205;28;20474;-57
2021/08/11 09:50:45;;;;;;;0.50;0.30;;;;;;;26.44;69.16;100564.47;4975018;28;20460;-57
2021/08/11 09:53:17;;;;;;;0.50;0.30;;;;;;;26.16;67.50;100563.31;4960902;28;20416;-57
2021/08/11 09:56:05;;;;;;;0.40;0.30;;;;;;;26.18;68.77;100566.81;4949864;28;20598;-57
2021/08/11 09:58:38;;;;;;;0.50;0.30;;;;;;;26.51;67.14;100562.91;4975092;28;20536;-57
2021/08/11 10:01:25;;;;;;;1.27;1.27;;;;;;;25.96;67.51;100567.84;4974994;28;20450;-57
2021/08/11 10:04:01;;;;;;;0.40;0.30;;;;;;;25.91;67.74;100564.66;4974969;28;20955;-57
2021/08/11 10:06:46;;;;;;;0.40;0.30;;;;;;;25.90;68.14;100570.22;4965817;28;20447;-57
2021/08/11 10:09:19;;;;;;;0.40;0.30;;;;;;;26.35;68.56;100573.47;4974645;28;20857;-57
2021/08/11 10:11:57;;;;;;;1.13;0.43;;;;;;;26.24;67.46;100573.56;4974540;28;20524;-57
2021/08/11 10:14:28;;;;;;;0.40;0.30;;;;;;;25.82;68.39;100568.19;4974672;28;20919;-57
2021/08/11 10:16:57;;;;;;;0.47;0.33;;;;;;;26.24;68.84;100577.13;4974474;28;21057;-57
2021/08/11 10:19:29;;;;;;;0.87;0.70;;;;;;;26.17;69.46;100580.53;4974471;28;20428;-57
2021/08/11 10:22:01;;;;;;;1.53;1.53;;;;;;;26.02;68.29;100571.00;4974563;28;20491;-57
2021/08/11 10:24:31;;;;;;;0.40;0.30;;;;;;;26.06;68.53;100570.63;4974190;28;20531;-57
2021/08/11 10:26:58;;;;;;;0.40;0.23;;;;;;;25.79;68.15;100568.47;4974526;28;20504;-57
2021/08/11 10:29:25;;;;;;;0.40;0.30;;;;;;;25.99;70.15;100564.84;4974359;28;20501;-57
2021/08/11 10:31:54;;;;;;;0.50;0.43;;;;;;;25.91;67.84;100561.94;4974582;28;20487;-57
2021/08/11 10:34:23;;;;;;;0.50;0.30;;;;;;;25.94;68.40;100558.94;4974313;28;20457;-57
2021/08/11 10:36:49;;;;;;;0.50;0.30;;;;;;;26.14;68.83;100562.59;4971021;28;20425;-57
2021/08/11 10:39:18;;;;;;;0.50;0.37;;;;;;;25.65;69.21;100558.75;4974396;28;20513;-57
2021/08/11 10:41:45;;;;;;;1.17;1.17;;;;;;;25.52;70.75;100563.53;4974145;28;20780;-57
2021/08/11 10:44:20;;;;;;;1.43;1.40;;;;;;;25.96;69.55;100561.53;4968974;28;20566;-57
2021/08/11 10:47:08;;;;;;;0.53;0.53;;;;;;;26.49;69.53;100559.47;4967847;28;20421;-57
2021/08/11 10:49:51;;;;;;;0.40;0.30;;;;;;;26.49;69.89;100570.38;4974397;28;20509;-57
2021/08/11 10:52:18;;;;;;;0.40;0.30;;;;;;;27.20;67.84;100556.56;4966109;28;20441;-57
2021/08/11 10:54:52;;;;;;;0.40;0.30;;;;;;;27.10;66.74;100563.88;4974089;28;20580;-57
2021/08/11 10:57:34;;;;;;;0.50;0.50;;;;;;;27.61;65.63;100557.25;4973714;28;20445;-56
2021/08/11 11:00:08;;;;;;;0.40;0.30;;;;;;;27.27;65.98;100557.69;4973596;28;20546;-56
2021/08/11 11:02:38;;;;;;;0.50;0.30;;;;;;;27.59;63.95;100554.66;4973619;28;20894;-56
2021/08/11 11:05:27;;;;;;;0.90;0.90;;;;;;;26.93;61.55;100538.13;4973667;28;20496;-56
2021/08/11 11:08:15;;;;;;;1.13;1.13;;;;;;;26.85;64.93;100546.16;4959727;28;20503;-56
2021/08/11 11:10:47;;;;;;;0.50;0.40;;;;;;;26.99;64.22;100542.16;4973927;28;20448;-56
2021/08/11 11:13:23;;;;;;;0.77;0.77;;;;;;;26.82;64.37;100543.72;4972622;28;20504;-56
2021/08/11 11:15:51;;;;;;;0.40;0.30;;;;;;;27.09;63.60;100546.66;4973850;28;20847;-56
2021/08/11 11:18:22;;;;;;;0.50;0.40;;;;;;;27.67;63.79;100540.28;4973561;28;20477;-57
2021/08/11 11:21:12;;;;;;;0.40;0.30;;;;;;;27.68;60.80;100531.94;4973312;28;20420;-56
2021/08/11 11:23:41;;;;;;;1.00;0.50;;;;;;;27.68;60.62;100531.06;4973486;28;20526;-56
2021/08/11 11:26:11;;;;;;;0.50;0.30;;;;;;;28.14;61.83;100529.34;4973598;28;20955;-56
2021/08/11 11:29:08;;;;;;;0.40;0.30;;;;;;;28.40;60.84;100543.22;4974030;28;20478;-57
2021/08/11 11:31:47;;;;;;;0.50;0.30;;;;;;;28.51;58.64;100534.75;4969209;28;20468;-57